Terminal Aerodrome Forecast
Issued by NWS Twin Cities, MN

Home | Current Version | Previous Version | Text Only | Print | Product List | Glossary Off
Versions: 1 2 3 4 5 6 7 8 9 10 11 12 13 14 15 16 17 18 19 20 21 22 23 24 25 26

303
FTUS43 KMPX 100249 AAA
TAFMSP
TAF AMD
KMSP 100249Z 1003/1106 32008KT P6SM SKC
     FM100700 33008KT P6SM SCT200
     FM101600 36004KT P6SM BKN100
     FM101900 35004KT P6SM BKN070=

USA.gov is the U.S. government's official web portal to all federal, state and local government web resources and services.